Mahwah, NJ

2:49 PM EST on March 01, 2015 (GMT -0500)
ROSE | Change Station
CLOSE
Current Station
Personal Weather Station
Location: RAMSEY, NJ
Elevation: 375 ft
Nearby Weather Stations
Active Advisory: Winter Weather Advisory Active Notice: Record Report

Elev 375 ft 41.04 °N, 74.14 °W | Updated 2 seconds ago

Overcast
Overcast
25.9 °F
Feels Like 26 °F
N
2.2
Wind Variable Wind from SW
Gusts 3.6 mph

Today
High -- | Low -- °F
--% Chance of Precip.
Yesterday
High -- | Low -- °F
Precip. -- in
6:31 AM 5:47 PM
Waxing Gibbous, 87% visible
Pressure 30.45 in
Visibility 0.5 miles
Clouds
Windchill 26 °F
Dew Point 4 °F
Humidity 39%
Rainfall 0.00 in
Snow Depth Not available.
UV Not available.
Pollen .50 out of 12
Air Quality Not available.
Flu Activity Not available.
SPECI KCDW 011944Z 19004KT 1/2SM SN FZFG VV014 M05/M07 A3045 RMK AO2 P0003 T10501072

More Conditions Fewer Conditions

Pressure 30.45 in
Visibility 0.5 miles
Clouds
Windchill 26 °F
Dew Point 4 °F
Humidity 39%
Rainfall 0.00 in
Snow Depth Not available.
UV Not available.
Pollen .50 out of 12
Air Quality Not available.
Flu Activity Not available.
SPECI KCDW 011944Z 19004KT 1/2SM SN FZFG VV014 M05/M07 A3045 RMK AO2 P0003 T10501072

More Conditions Fewer Conditions

10-Day Weather Forecast

Almanac

Astronomy

Mar. 01, 2015 Rise Set
Actual Time
Civil Twilight
Nautical Twilight
Astronomical Twilight
Moon
Length of Visible Light
Length of Day
Tomorrow will be .
, % of the Moon is Illuminated

Today's Extremes

State Highs State Lows

Community

WunderPhotos

Upload Photos

1,801,491 photos uploaded!

WunderBlogs® & News

Nearby

Air Quality

  Air Quality AQ Index Pollutant
Not available.

Snow Depth

Station Depth Elevation

Earthquake Activity

City Distance Mag. Time & Date
Minimum magnitude displayed is 2.5.

Coastal Water Temperatures

Place Temperature

Nearby Weather Stations

Winter Weather Advisory
Statement as of 10:11 AM EST on March 01, 2015

... Winter Weather Advisory remains in effect until 7 am EST
Monday...

* locations... southern Connecticut... the lower Hudson Valley...
and the higher elevations of interior northeast New Jersey.

* Hazard types... snow.

* Accumulations... 4 to 6 inches of snow.

* Visibilities... one half mile at times.

* Temperatures... mid 20s.

* Timing... snow was already falling in parts of the lower Hudson
Valley and interior southwestern Connecticut late this morning.
Snow will spread into the rest of the advisory area this
afternoon... continue through this evening... and then taper off
late tonight into early Monday morning.

* Impacts... snow covered surfaces will cause travel difficulties
and hide already icy spots.

Precautionary/preparedness actions...

A Winter Weather Advisory means that periods of snow... sleet... or
freezing rain will cause travel difficulties. Be prepared for
slippery roads and limited visibilities... and use caution while
driving.